Thomson, New York
Current Conditions -  °F | °C
As of 3:53 AM on Monday 20 Oct 2014 (Local Time) from KGFL Reporting Station
Clear Clear  
Wind Chill: -3°   Ceiling: Unl
Heat Index: -1°   Visibility: 10mi
Dew Point: -3°   Wind: 5mph
Humidity: 82%   Direction: 170°S
Pressure: 30.02"   Gusts: NA
Location:  43.09°N, 73.5018°W
Report Text: KGFL 200753Z AUTO 17004KT 10SM CLR M01/M03 A3002 RMK AO2 SLP172 T10061033
Loading
Personal Weather Stations






























Interactive Weather Map
Tropical Storm Tracking
New forecast layout! Learn more

10-Day Weather Forecast

Advertisements
Track Severe Weather on mobile